createdAt,value
2017-06-06T00:00:07.649Z,17.73
2017-06-06T00:01:08.348Z,17.70
2017-06-06T00:02:08.286Z,17.68
2017-06-06T00:03:07.671Z,17.69
2017-06-06T00:04:08.472Z,17.69
2017-06-06T00:05:08.284Z,17.70
2017-06-06T00:06:07.559Z,17.71
2017-06-06T00:07:07.320Z,17.70
2017-06-06T00:08:07.927Z,17.70
2017-06-06T00:09:07.688Z,17.69
2017-06-06T00:10:07.311Z,17.70
2017-06-06T00:11:07.982Z,17.68
2017-06-06T00:12:08.756Z,17.68
2017-06-06T00:13:07.285Z,17.66
2017-06-06T00:14:08.298Z,17.64
2017-06-06T00:15:07.642Z,17.63
2017-06-06T00:16:08.360Z,17.63
2017-06-06T00:17:07.949Z,17.63
2017-06-06T00:18:07.953Z,17.63
2017-06-06T00:19:07.596Z,17.61
2017-06-06T00:20:08.375Z,17.61
2017-06-06T00:21:07.943Z,17.61
2017-06-06T00:22:07.615Z,17.60
2017-06-06T00:23:07.368Z,17.60
2017-06-06T00:24:07.925Z,17.60
2017-06-06T00:25:07.707Z,17.61
2017-06-06T00:26:07.249Z,17.62
2017-06-06T00:27:08.042Z,17.62
2017-06-06T00:28:07.646Z,17.63
2017-06-06T00:29:07.358Z,17.62
2017-06-06T00:30:07.951Z,17.64
2017-06-06T00:31:07.617Z,17.65
2017-06-06T00:32:08.387Z,17.63
2017-06-06T00:33:08.478Z,17.62
2017-06-06T00:34:07.786Z,17.59
2017-06-06T00:35:07.467Z,17.60
2017-06-06T00:36:08.648Z,17.61
2017-06-06T00:37:07.891Z,17.62
2017-06-06T00:38:07.267Z,17.64
2017-06-06T00:39:08.594Z,17.64
2017-06-06T00:40:07.643Z,17.64
2017-06-06T00:41:07.365Z,17.62
2017-06-06T00:42:08.321Z,17.61
2017-06-06T00:43:07.639Z,17.62
2017-06-06T00:44:07.363Z,17.63
2017-06-06T00:45:08.084Z,17.62
2017-06-06T00:46:08.177Z,17.63
2017-06-06T00:47:07.495Z,17.64
2017-06-06T00:48:07.917Z,17.62
2017-06-06T00:49:07.613Z,17.62
2017-06-06T00:50:07.426Z,17.62
2017-06-06T00:51:07.981Z,17.62
2017-06-06T00:52:07.613Z,17.63
2017-06-06T00:53:07.285Z,17.63
2017-06-06T00:54:07.936Z,17.63
2017-06-06T00:55:07.666Z,17.62
2017-06-06T00:56:07.368Z,17.61
2017-06-06T00:57:07.981Z,17.61
2017-06-06T00:58:07.663Z,17.59
2017-06-06T00:59:07.358Z,17.59
2017-06-06T01:00:07.994Z,17.56
2017-06-06T01:01:07.722Z,17.56
2017-06-06T01:02:07.432Z,17.57
2017-06-06T01:03:08.094Z,17.60
2017-06-06T01:04:07.939Z,17.60
2017-06-06T01:05:07.441Z,17.61
2017-06-06T01:06:09.131Z,17.60
2017-06-06T01:07:07.983Z,17.58
2017-06-06T01:08:07.422Z,17.59
2017-06-06T01:09:08.636Z,17.57
2017-06-06T01:10:07.957Z,17.56
2017-06-06T01:11:07.630Z,17.57
2017-06-06T01:12:08.197Z,17.55
2017-06-06T01:13:07.941Z,17.53
2017-06-06T01:14:07.781Z,17.50
2017-06-06T01:15:07.443Z,17.50
2017-06-06T01:16:08.093Z,17.50
2017-06-06T01:17:09.192Z,17.50
2017-06-06T01:18:07.461Z,17.49
2017-06-06T01:19:08.065Z,17.49
2017-06-06T01:20:08.111Z,17.50
2017-06-06T01:21:07.676Z,17.50
2017-06-06T01:22:07.377Z,17.53
2017-06-06T01:23:08.988Z,17.54
2017-06-06T01:24:07.693Z,17.56
2017-06-06T01:25:07.427Z,17.56
2017-06-06T01:26:09.048Z,17.55
2017-06-06T01:27:07.634Z,17.57
2017-06-06T01:28:07.461Z,17.58
2017-06-06T01:29:08.175Z,17.56
2017-06-06T01:30:07.664Z,17.58
2017-06-06T01:31:07.319Z,17.58
2017-06-06T01:32:08.208Z,17.58
2017-06-06T01:33:07.731Z,17.53
2017-06-06T01:34:07.422Z,17.50
2017-06-06T01:35:08.092Z,17.48
2017-06-06T01:36:08.483Z,17.48
2017-06-06T01:37:07.705Z,17.48
2017-06-06T01:38:07.318Z,17.47
2017-06-06T01:39:08.036Z,17.47
2017-06-06T01:40:07.704Z,17.47
2017-06-06T01:41:07.409Z,17.49
2017-06-06T01:42:07.895Z,17.49
2017-06-06T01:43:07.680Z,17.47
2017-06-06T01:44:07.424Z,17.46
2017-06-06T01:45:07.967Z,17.46
2017-06-06T01:46:07.701Z,17.46
2017-06-06T01:47:07.408Z,17.46
2017-06-06T01:48:08.248Z,17.45
2017-06-06T01:49:08.225Z,17.45
2017-06-06T01:50:07.951Z,17.45
2017-06-06T01:51:08.749Z,17.44
2017-06-06T01:52:08.419Z,17.45
2017-06-06T01:53:08.115Z,17.44
2017-06-06T01:54:07.716Z,17.43
2017-06-06T01:55:07.448Z,17.44
2017-06-06T01:56:08.069Z,17.42
2017-06-06T01:57:07.752Z,17.43
2017-06-06T01:58:07.819Z,17.43
2017-06-06T01:59:08.025Z,17.44
2017-06-06T02:00:07.771Z,17.44
2017-06-06T02:01:07.322Z,17.41
2017-06-06T02:02:08.166Z,17.42
2017-06-06T02:03:07.821Z,17.42
2017-06-06T02:04:07.633Z,17.41
2017-06-06T02:05:15.536Z,17.42
2017-06-06T02:06:08.097Z,17.44
2017-06-06T02:07:07.783Z,17.43
2017-06-06T02:08:07.398Z,17.41
2017-06-06T02:09:08.139Z,17.41
2017-06-06T02:10:07.733Z,17.38
2017-06-06T02:11:07.348Z,17.37
2017-06-06T02:12:07.984Z,17.37
2017-06-06T02:13:07.768Z,17.36
2017-06-06T02:14:07.522Z,17.35
2017-06-06T02:15:08.073Z,17.35
2017-06-06T02:16:07.725Z,17.36
2017-06-06T02:17:07.360Z,17.36
2017-06-06T02:18:08.057Z,17.38
2017-06-06T02:19:08.020Z,17.38
2017-06-06T02:20:07.852Z,17.41
2017-06-06T02:21:07.438Z,17.40
2017-06-06T02:22:08.336Z,17.40
2017-06-06T02:23:07.672Z,17.41
2017-06-06T02:24:07.434Z,17.41
2017-06-06T02:25:09.190Z,17.40
2017-06-06T02:26:07.801Z,17.37
2017-06-06T02:27:07.417Z,17.35
2017-06-06T02:28:08.409Z,17.36
2017-06-06T02:29:07.686Z,17.36
2017-06-06T02:30:07.420Z,17.35
2017-06-06T02:31:08.109Z,17.35
2017-06-06T02:32:07.689Z,17.35
2017-06-06T02:33:07.473Z,17.34
2017-06-06T02:34:08.420Z,17.32
2017-06-06T02:35:07.757Z,17.32
2017-06-06T02:36:07.458Z,17.33
2017-06-06T02:37:08.083Z,17.34
2017-06-06T02:38:07.685Z,17.33
2017-06-06T02:39:07.423Z,17.35
2017-06-06T02:40:08.159Z,17.35
2017-06-06T02:41:07.870Z,17.30
2017-06-06T02:42:07.757Z,17.30
2017-06-06T02:43:07.429Z,17.29
2017-06-06T02:44:08.078Z,17.28
2017-06-06T02:45:07.767Z,17.28
2017-06-06T02:46:07.383Z,17.31
2017-06-06T02:47:07.832Z,17.31
2017-06-06T02:48:07.927Z,17.33
2017-06-06T02:49:07.266Z,17.36
2017-06-06T02:50:07.927Z,17.36
2017-06-06T02:51:07.732Z,17.32
2017-06-06T02:52:07.938Z,17.31
2017-06-06T02:53:07.501Z,17.30
2017-06-06T02:54:08.044Z,17.29
2017-06-06T02:55:07.875Z,17.27
2017-06-06T02:56:07.563Z,17.25
2017-06-06T02:57:08.277Z,17.23
2017-06-06T02:58:07.886Z,17.22
2017-06-06T02:59:07.462Z,17.22
2017-06-06T03:00:08.480Z,17.21
2017-06-06T03:01:07.763Z,17.21
2017-06-06T03:02:07.610Z,17.21
2017-06-06T03:03:08.028Z,17.23
2017-06-06T03:04:07.789Z,17.22
2017-06-06T03:05:07.566Z,17.22
2017-06-06T03:06:08.409Z,17.23
2017-06-06T03:07:07.825Z,17.25
2017-06-06T03:08:07.519Z,17.24
2017-06-06T03:09:08.219Z,17.24
2017-06-06T03:10:07.827Z,17.24
2017-06-06T03:11:07.586Z,17.26
2017-06-06T03:12:08.053Z,17.26
2017-06-06T03:13:07.884Z,17.26
2017-06-06T03:14:07.444Z,17.24
2017-06-06T03:15:08.058Z,17.23
2017-06-06T03:16:07.907Z,17.23
2017-06-06T03:17:07.457Z,17.22
2017-06-06T03:18:07.278Z,17.21
2017-06-06T03:19:07.886Z,17.20
2017-06-06T03:20:07.490Z,17.18
2017-06-06T03:21:07.168Z,17.19
2017-06-06T03:22:08.078Z,17.19
2017-06-06T03:23:07.808Z,17.17
2017-06-06T03:24:07.164Z,17.18
2017-06-06T03:25:07.868Z,17.20
2017-06-06T03:26:07.983Z,17.21
2017-06-06T03:27:07.232Z,17.22
2017-06-06T03:28:07.928Z,17.19
2017-06-06T03:29:07.509Z,17.20
2017-06-06T03:30:08.339Z,17.20
2017-06-06T03:31:07.788Z,17.20
2017-06-06T03:32:07.487Z,17.21
2017-06-06T03:33:08.214Z,17.16
2017-06-06T03:34:08.489Z,17.15
2017-06-06T03:35:07.530Z,17.19
2017-06-06T03:36:07.520Z,17.20
2017-06-06T03:37:08.248Z,17.21
2017-06-06T03:38:09.108Z,17.21
2017-06-06T03:39:07.179Z,17.20
2017-06-06T03:40:07.813Z,17.16
2017-06-06T03:41:08.018Z,17.17
2017-06-06T03:42:08.233Z,17.18
2017-06-06T03:43:07.903Z,17.18
2017-06-06T03:44:08.197Z,17.16
2017-06-06T03:45:07.363Z,17.15
2017-06-06T03:46:07.497Z,17.16
2017-06-06T03:47:07.849Z,17.17
2017-06-06T03:48:08.844Z,17.16
2017-06-06T03:49:07.289Z,17.18
2017-06-06T03:50:08.050Z,17.16
2017-06-06T03:51:07.706Z,17.17
2017-06-06T03:52:07.249Z,17.17
2017-06-06T03:53:08.273Z,17.18
2017-06-06T03:54:07.494Z,17.17
2017-06-06T03:55:07.263Z,17.17
2017-06-06T03:56:08.262Z,17.20
2017-06-06T03:57:07.565Z,17.20
2017-06-06T03:58:08.228Z,17.20
2017-06-06T03:59:08.005Z,17.16
2017-06-06T04:00:07.691Z,17.15
2017-06-06T04:01:07.371Z,17.13
2017-06-06T04:02:07.884Z,17.13
2017-06-06T04:03:07.635Z,17.14
2017-06-06T04:04:07.352Z,17.15
2017-06-06T04:05:07.866Z,17.13
2017-06-06T04:06:07.756Z,17.14
2017-06-06T04:07:08.173Z,17.15
2017-06-06T04:08:07.953Z,17.15
2017-06-06T04:09:07.550Z,17.16
2017-06-06T04:10:08.350Z,17.15
2017-06-06T04:11:08.086Z,17.13
2017-06-06T04:12:07.285Z,17.12
2017-06-06T04:13:08.324Z,17.11
2017-06-06T04:14:15.247Z,17.10
2017-06-06T04:15:07.313Z,17.09
2017-06-06T04:16:07.874Z,17.08
2017-06-06T04:17:07.537Z,17.09
2017-06-06T04:18:07.306Z,17.09
2017-06-06T04:19:08.163Z,17.10
2017-06-06T04:20:08.073Z,17.10
2017-06-06T04:21:07.251Z,17.10
2017-06-06T04:22:09.153Z,17.09
2017-06-06T04:23:07.792Z,17.09
2017-06-06T04:24:08.629Z,17.10
2017-06-06T04:25:10.700Z,17.11
2017-06-06T04:26:07.859Z,17.13
2017-06-06T04:27:07.562Z,17.16
2017-06-06T04:28:07.346Z,17.16
2017-06-06T04:29:07.947Z,17.14
2017-06-06T04:30:07.731Z,17.14
2017-06-06T04:31:08.573Z,17.12
2017-06-06T04:32:08.026Z,17.10
2017-06-06T04:33:07.588Z,17.12
2017-06-06T04:34:08.380Z,17.13
2017-06-06T04:35:07.948Z,17.14
2017-06-06T04:36:07.931Z,17.15
2017-06-06T04:37:07.694Z,17.15
2017-06-06T04:38:08.245Z,17.14
2017-06-06T04:39:07.737Z,17.15
2017-06-06T04:40:07.283Z,17.17
2017-06-06T04:41:08.229Z,17.14
2017-06-06T04:42:07.764Z,17.14
2017-06-06T04:43:07.495Z,17.15
2017-06-06T04:44:08.080Z,17.16
2017-06-06T04:45:07.992Z,17.18
2017-06-06T04:46:08.610Z,17.20
2017-06-06T04:47:08.340Z,17.19
2017-06-06T04:48:07.895Z,17.21
2017-06-06T04:49:08.623Z,17.22
2017-06-06T04:50:07.231Z,17.21
2017-06-06T04:51:08.016Z,17.22
2017-06-06T04:52:07.645Z,17.20
2017-06-06T04:53:08.306Z,17.20
2017-06-06T04:54:07.958Z,17.21
2017-06-06T04:55:07.664Z,17.19
2017-06-06T04:56:07.347Z,17.20
2017-06-06T04:57:08.058Z,17.19
2017-06-06T04:58:07.650Z,17.19
2017-06-06T04:59:07.327Z,17.20
2017-06-06T05:00:07.993Z,17.20
2017-06-06T05:01:07.659Z,17.20
2017-06-06T05:02:07.379Z,17.21
2017-06-06T05:03:08.013Z,17.21
2017-06-06T05:04:07.608Z,17.23
2017-06-06T05:05:07.276Z,17.22
2017-06-06T05:06:07.994Z,17.23
2017-06-06T05:07:07.694Z,17.25
2017-06-06T05:08:07.291Z,17.24
2017-06-06T05:09:08.053Z,17.25
2017-06-06T05:10:07.622Z,17.27
2017-06-06T05:11:07.285Z,17.24
2017-06-06T05:12:08.273Z,17.21
2017-06-06T05:13:07.702Z,17.21
2017-06-06T05:14:07.328Z,17.21
2017-06-06T05:15:08.008Z,17.22
2017-06-06T05:16:07.643Z,17.23
2017-06-06T05:17:07.430Z,17.24
2017-06-06T05:18:08.253Z,17.24
2017-06-06T05:19:07.977Z,17.25
2017-06-06T05:20:07.667Z,17.23
2017-06-06T05:21:08.328Z,17.20
2017-06-06T05:22:08.066Z,17.22
2017-06-06T05:23:07.733Z,17.22
2017-06-06T05:24:08.322Z,17.23
2017-06-06T05:25:09.062Z,17.24
2017-06-06T05:26:07.721Z,17.26
2017-06-06T05:27:08.383Z,17.27
2017-06-06T05:28:08.102Z,17.28
2017-06-06T05:29:07.724Z,17.28
2017-06-06T05:30:07.400Z,17.29
2017-06-06T05:31:08.149Z,17.29
2017-06-06T05:32:07.747Z,17.31
2017-06-06T05:33:07.428Z,17.32
2017-06-06T05:34:08.084Z,17.34
2017-06-06T05:35:07.650Z,17.36
2017-06-06T05:36:07.429Z,17.35
2017-06-06T05:37:08.044Z,17.33
2017-06-06T05:38:07.739Z,17.35
2017-06-06T05:39:07.416Z,17.39
2017-06-06T05:40:08.102Z,17.41
2017-06-06T05:41:07.695Z,17.42
2017-06-06T05:42:07.405Z,17.43
2017-06-06T05:43:08.100Z,17.43
2017-06-06T05:44:07.670Z,17.44
2017-06-06T05:45:07.448Z,17.43
2017-06-06T05:46:08.037Z,17.45
2017-06-06T05:47:07.681Z,17.47
2017-06-06T05:48:07.476Z,17.48
2017-06-06T05:49:07.913Z,17.48
2017-06-06T05:50:07.766Z,17.48
2017-06-06T05:51:08.409Z,17.48
2017-06-06T05:52:08.045Z,17.47
2017-06-06T05:53:07.683Z,17.45
2017-06-06T05:54:07.395Z,17.45
2017-06-06T05:55:08.086Z,17.45
2017-06-06T05:56:07.710Z,17.45
2017-06-06T05:57:07.415Z,17.44
2017-06-06T05:58:08.079Z,17.46
2017-06-06T05:59:07.726Z,17.49
2017-06-06T06:00:08.244Z,17.51
2017-06-06T06:01:07.953Z,17.52
2017-06-06T06:02:07.776Z,17.53
2017-06-06T06:03:08.616Z,17.53
2017-06-06T06:04:08.187Z,17.55
2017-06-06T06:05:08.758Z,17.56
2017-06-06T06:06:07.624Z,17.57
2017-06-06T06:07:14.824Z,17.56
2017-06-06T06:08:07.843Z,17.54
2017-06-06T06:09:08.606Z,17.54
2017-06-06T06:10:08.263Z,17.55
2017-06-06T06:11:07.854Z,17.56
2017-06-06T06:12:07.681Z,17.57
2017-06-06T06:13:08.376Z,17.56
2017-06-06T06:14:07.975Z,17.57
2017-06-06T06:15:07.673Z,17.56
2017-06-06T06:16:08.231Z,17.57
2017-06-06T06:17:08.022Z,17.60
2017-06-06T06:18:07.698Z,17.62
2017-06-06T06:19:08.334Z,17.63
2017-06-06T06:20:07.799Z,17.65
2017-06-06T06:21:07.667Z,17.65
2017-06-06T06:22:08.182Z,17.65
2017-06-06T06:23:07.944Z,17.62
2017-06-06T06:24:07.629Z,17.61
2017-06-06T06:25:08.258Z,17.62
2017-06-06T06:26:07.971Z,17.63
2017-06-06T06:27:07.586Z,17.63
2017-06-06T06:28:08.625Z,17.63
2017-06-06T06:29:07.883Z,17.63
2017-06-06T06:30:07.583Z,17.62
2017-06-06T06:31:08.258Z,17.62
2017-06-06T06:32:07.976Z,17.63
2017-06-06T06:33:07.598Z,17.63
2017-06-06T06:34:08.352Z,17.64
2017-06-06T06:35:07.923Z,17.65
2017-06-06T06:36:08.228Z,17.64
2017-06-06T06:37:07.584Z,17.65
2017-06-06T06:38:08.501Z,17.66
2017-06-06T06:39:08.372Z,17.68
2017-06-06T06:40:07.841Z,17.70
2017-06-06T06:41:08.495Z,17.71
2017-06-06T06:42:07.932Z,17.72
2017-06-06T06:43:07.705Z,17.75
2017-06-06T06:44:08.676Z,17.77
2017-06-06T06:45:08.062Z,17.78
2017-06-06T06:46:08.156Z,17.76
2017-06-06T06:47:07.971Z,17.75
2017-06-06T06:48:08.913Z,17.76
2017-06-06T06:49:08.414Z,17.75
2017-06-06T06:50:07.924Z,17.75
2017-06-06T06:51:07.606Z,17.75
2017-06-06T06:52:08.073Z,17.73
2017-06-06T06:53:07.930Z,17.73
2017-06-06T06:54:08.578Z,17.73
2017-06-06T06:55:08.002Z,17.73
2017-06-06T06:56:07.772Z,17.73
2017-06-06T06:57:08.677Z,17.73
2017-06-06T06:58:07.940Z,17.71
2017-06-06T06:59:07.764Z,17.71
2017-06-06T07:00:08.732Z,17.73
2017-06-06T07:01:07.998Z,17.74
2017-06-06T07:02:07.724Z,17.74
2017-06-06T07:03:08.314Z,17.73
2017-06-06T07:04:08.065Z,17.74
2017-06-06T07:05:08.760Z,17.75
2017-06-06T07:06:07.389Z,17.76
2017-06-06T07:07:08.012Z,17.78
2017-06-06T07:08:09.044Z,17.81
2017-06-06T07:09:08.768Z,17.83
2017-06-06T07:10:07.925Z,17.85
2017-06-06T07:11:07.717Z,17.85
2017-06-06T07:12:08.342Z,17.87
2017-06-06T07:13:07.944Z,17.89
2017-06-06T07:14:07.726Z,17.90
2017-06-06T07:15:08.303Z,17.90
2017-06-06T07:16:08.057Z,17.91
2017-06-06T07:17:15.219Z,17.89
2017-06-06T07:18:07.311Z,17.90
2017-06-06T07:19:08.483Z,17.91
2017-06-06T07:20:08.949Z,17.90
2017-06-06T07:21:07.465Z,17.86
2017-06-06T07:22:08.172Z,17.87
2017-06-06T07:23:07.690Z,17.90
2017-06-06T07:24:15.545Z,17.92
2017-06-06T07:25:15.045Z,17.86
2017-06-06T07:26:08.380Z,17.88
2017-06-06T07:27:07.966Z,17.89
2017-06-06T07:28:07.706Z,17.88
2017-06-06T07:29:08.405Z,17.85
2017-06-06T07:30:08.214Z,17.83
2017-06-06T07:31:07.374Z,17.83
2017-06-06T07:32:08.336Z,17.72
2017-06-06T07:33:07.869Z,17.65
2017-06-06T07:34:08.103Z,17.66
2017-06-06T07:35:07.891Z,17.68
2017-06-06T07:36:08.416Z,17.70
2017-06-06T07:37:09.134Z,17.74
2017-06-06T07:38:07.723Z,17.77
2017-06-06T07:39:08.347Z,17.80
2017-06-06T07:40:18.390Z,17.80
2017-06-06T07:41:07.625Z,17.79
2017-06-06T07:42:08.374Z,17.81
2017-06-06T07:43:08.071Z,17.83
2017-06-06T07:44:07.626Z,17.86
2017-06-06T07:45:08.372Z,17.87
2017-06-06T07:46:08.139Z,17.82
2017-06-06T07:47:07.366Z,17.80
2017-06-06T07:48:08.020Z,17.83
2017-06-06T07:49:07.774Z,17.87
2017-06-06T07:50:07.361Z,17.90
2017-06-06T07:51:08.015Z,17.94
2017-06-06T07:52:07.815Z,17.97
2017-06-06T07:53:08.449Z,17.95
2017-06-06T07:54:08.099Z,17.97
2017-06-06T07:55:15.312Z,17.98
2017-06-06T07:56:08.527Z,18.02
2017-06-06T07:57:08.191Z,18.03
2017-06-06T07:58:07.803Z,18.05
2017-06-06T07:59:08.445Z,18.08
2017-06-06T08:00:07.979Z,18.09
2017-06-06T08:01:07.823Z,18.04
2017-06-06T08:02:08.473Z,17.98
2017-06-06T08:03:08.047Z,17.97
2017-06-06T08:04:07.852Z,17.91
2017-06-06T08:05:08.373Z,17.95
2017-06-06T08:06:08.097Z,17.99
2017-06-06T08:07:08.733Z,18.06
2017-06-06T08:08:08.419Z,18.09
2017-06-06T08:09:08.010Z,17.92
2017-06-06T08:10:07.919Z,17.87
2017-06-06T08:11:08.651Z,17.79
2017-06-06T08:12:08.082Z,17.79
2017-06-06T08:13:07.812Z,17.85
2017-06-06T08:14:08.426Z,17.81
2017-06-06T08:15:08.067Z,17.75
2017-06-06T08:16:07.687Z,17.71
2017-06-06T08:17:07.446Z,17.70
2017-06-06T08:18:08.426Z,17.67
2017-06-06T08:19:08.076Z,17.69
2017-06-06T08:20:07.735Z,17.66
2017-06-06T08:21:08.529Z,17.66
2017-06-06T08:22:07.854Z,17.72
2017-06-06T08:23:07.458Z,17.67
2017-06-06T08:24:08.195Z,17.72
2017-06-06T08:25:07.864Z,17.67
2017-06-06T08:26:07.492Z,17.69
2017-06-06T08:27:08.121Z,17.73
2017-06-06T08:28:07.566Z,17.73
2017-06-06T08:29:07.651Z,17.73
2017-06-06T08:30:08.087Z,17.78
2017-06-06T08:31:07.816Z,17.79
2017-06-06T08:32:07.455Z,17.66
2017-06-06T08:33:08.056Z,17.63
2017-06-06T08:34:07.903Z,17.65
2017-06-06T08:35:08.227Z,17.70
2017-06-06T08:36:08.116Z,17.73
2017-06-06T08:37:08.310Z,17.68
2017-06-06T08:38:07.477Z,17.68
2017-06-06T08:39:08.060Z,17.68
2017-06-06T08:40:07.754Z,17.71
2017-06-06T08:41:07.414Z,17.72
2017-06-06T08:42:08.022Z,17.72
2017-06-06T08:43:07.799Z,17.71
2017-06-06T08:44:08.629Z,17.68
2017-06-06T08:45:08.077Z,17.72
2017-06-06T08:46:09.012Z,17.73
2017-06-06T08:47:09.750Z,17.70
2017-06-06T08:48:08.155Z,17.71
2017-06-06T08:49:07.698Z,17.71
2017-06-06T08:50:08.434Z,17.64
2017-06-06T08:51:08.096Z,17.63
2017-06-06T08:52:07.812Z,17.68
2017-06-06T08:53:08.331Z,17.72
2017-06-06T08:54:08.018Z,17.68
2017-06-06T08:55:07.817Z,17.68
2017-06-06T08:56:08.398Z,17.75
2017-06-06T08:57:08.166Z,17.79
2017-06-06T08:58:08.057Z,17.79
2017-06-06T08:59:08.805Z,17.78
2017-06-06T09:00:08.120Z,17.73
2017-06-06T09:01:07.870Z,17.69
2017-06-06T09:02:08.354Z,17.66
2017-06-06T09:03:08.261Z,17.66
2017-06-06T09:04:07.647Z,17.67
2017-06-06T09:05:08.307Z,17.62
2017-06-06T09:06:07.993Z,17.64
2017-06-06T09:07:07.839Z,17.48
2017-06-06T09:08:08.627Z,17.48
2017-06-06T09:09:08.157Z,17.55
2017-06-06T09:10:07.804Z,17.54
2017-06-06T09:11:08.440Z,17.51
2017-06-06T09:12:08.003Z,17.53
2017-06-06T09:13:07.871Z,17.51
2017-06-06T09:14:08.389Z,17.44
2017-06-06T09:15:08.061Z,17.51
2017-06-06T09:16:07.772Z,17.62
2017-06-06T09:17:08.482Z,17.56
2017-06-06T09:18:08.101Z,17.62
2017-06-06T09:19:07.766Z,17.57
2017-06-06T09:20:07.477Z,17.56
2017-06-06T09:21:07.953Z,17.44
2017-06-06T09:22:07.872Z,17.48
2017-06-06T09:23:07.341Z,17.54
2017-06-06T09:24:07.973Z,17.52
2017-06-06T09:25:07.703Z,17.46
2017-06-06T09:26:07.438Z,17.52
2017-06-06T09:27:08.143Z,17.58
2017-06-06T09:28:07.708Z,17.62
2017-06-06T09:29:07.432Z,17.50
2017-06-06T09:30:08.004Z,17.48
2017-06-06T09:31:07.694Z,17.58
2017-06-06T09:32:07.380Z,17.57
2017-06-06T09:33:07.997Z,17.55
2017-06-06T09:34:08.665Z,17.56
2017-06-06T09:35:07.354Z,17.48
2017-06-06T09:36:07.991Z,17.53
2017-06-06T09:37:07.726Z,17.52
2017-06-06T09:38:08.279Z,17.31
2017-06-06T09:39:08.078Z,17.41
2017-06-06T09:40:07.740Z,17.43
2017-06-06T09:41:07.357Z,17.37
2017-06-06T09:42:07.936Z,17.32
2017-06-06T09:43:07.717Z,17.39
2017-06-06T09:44:07.390Z,17.33
2017-06-06T09:45:08.067Z,17.38
2017-06-06T09:46:07.623Z,17.47
2017-06-06T09:47:07.306Z,17.49
2017-06-06T09:48:08.020Z,17.51
2017-06-06T09:49:07.685Z,17.46
2017-06-06T09:50:07.328Z,17.41
2017-06-06T09:51:08.021Z,17.37
2017-06-06T09:52:07.731Z,17.41
2017-06-06T09:53:07.305Z,17.47
2017-06-06T09:54:08.028Z,17.48
2017-06-06T09:55:07.637Z,17.41
2017-06-06T09:56:08.356Z,17.37
2017-06-06T09:57:08.015Z,17.42
2017-06-06T09:58:07.460Z,17.31
2017-06-06T09:59:08.128Z,17.22
2017-06-06T10:00:07.948Z,17.17
2017-06-06T10:01:07.413Z,17.19
2017-06-06T10:02:08.086Z,17.17
2017-06-06T10:03:07.708Z,17.09
2017-06-06T10:04:07.410Z,17.16
2017-06-06T10:05:07.979Z,17.20
2017-06-06T10:06:07.709Z,17.20
2017-06-06T10:07:07.411Z,17.06
2017-06-06T10:08:07.960Z,17.15
2017-06-06T10:09:07.618Z,17.10
2017-06-06T10:10:07.426Z,17.04
2017-06-06T10:11:07.956Z,17.07
2017-06-06T10:12:07.687Z,17.08
2017-06-06T10:13:07.416Z,17.13
2017-06-06T10:14:08.051Z,17.20
2017-06-06T10:15:07.768Z,17.15
2017-06-06T10:16:07.353Z,17.19
2017-06-06T10:17:07.417Z,17.25
2017-06-06T10:18:08.346Z,17.29
2017-06-06T10:19:08.026Z,17.32
2017-06-06T10:20:07.513Z,17.28
2017-06-06T10:21:08.342Z,17.23
2017-06-06T10:22:07.995Z,17.23
2017-06-06T10:23:07.394Z,17.26
2017-06-06T10:24:08.125Z,17.28
2017-06-06T10:25:07.727Z,17.31
2017-06-06T10:26:07.426Z,17.35
2017-06-06T10:27:07.434Z,17.36
2017-06-06T10:28:08.327Z,17.35
2017-06-06T10:29:08.997Z,17.37
2017-06-06T10:30:07.447Z,17.40
2017-06-06T10:31:08.126Z,17.41
2017-06-06T10:32:07.830Z,17.41
2017-06-06T10:33:07.411Z,17.41
2017-06-06T10:34:08.316Z,17.40
2017-06-06T10:35:07.746Z,17.40
2017-06-06T10:36:07.432Z,17.43
2017-06-06T10:37:08.296Z,17.43
2017-06-06T10:38:07.715Z,17.42
2017-06-06T10:39:07.425Z,17.41
2017-06-06T10:40:08.107Z,17.38
2017-06-06T10:41:07.434Z,17.35
2017-06-06T10:42:08.083Z,17.32
2017-06-06T10:43:08.801Z,17.31
2017-06-06T10:44:07.387Z,17.30
2017-06-06T10:46:07.821Z,17.31
2017-06-06T10:47:07.280Z,17.32
2017-06-06T10:48:08.153Z,17.35
2017-06-06T10:49:07.816Z,17.36
2017-06-06T10:50:07.506Z,17.37
2017-06-06T10:51:08.092Z,17.38
2017-06-06T10:52:07.785Z,17.40
2017-06-06T10:53:07.117Z,17.43
2017-06-06T10:54:08.069Z,17.48
2017-06-06T10:55:07.437Z,17.51
2017-06-06T10:56:07.170Z,17.56
2017-06-06T10:57:08.060Z,17.61
2017-06-06T10:58:07.489Z,17.67
2017-06-06T10:59:08.368Z,17.73
2017-06-06T11:00:07.756Z,17.81
2017-06-06T11:01:07.515Z,17.86
2017-06-06T11:02:08.067Z,17.88
2017-06-06T11:03:07.817Z,17.91
2017-06-06T11:04:07.423Z,17.93
2017-06-06T11:05:07.723Z,17.96
2017-06-06T11:06:07.128Z,17.98
2017-06-06T11:07:08.102Z,18.01
2017-06-06T11:08:07.793Z,18.03
2017-06-06T11:09:07.150Z,18.05
2017-06-06T11:10:08.096Z,18.11
2017-06-06T11:11:07.767Z,18.17
2017-06-06T11:12:07.142Z,18.24
2017-06-06T11:13:07.903Z,18.25
2017-06-06T11:14:07.511Z,18.26
2017-06-06T11:15:07.165Z,18.24
2017-06-06T11:16:07.911Z,18.26
2017-06-06T11:17:18.182Z,18.33
2017-06-06T11:18:07.551Z,18.35
2017-06-06T11:19:08.080Z,18.43
2017-06-06T11:20:07.777Z,18.47
2017-06-06T11:21:08.528Z,18.52
2017-06-06T11:22:08.171Z,18.58
2017-06-06T11:23:07.776Z,18.55
2017-06-06T11:24:07.461Z,18.55
2017-06-06T11:25:08.150Z,18.57
2017-06-06T11:26:07.855Z,18.56
2017-06-06T11:27:07.848Z,18.57
2017-06-06T11:28:07.582Z,18.58
2017-06-06T11:29:08.086Z,18.60
2017-06-06T11:30:07.818Z,18.63
2017-06-06T11:31:07.542Z,18.59
2017-06-06T11:32:09.259Z,18.56
2017-06-06T11:33:08.940Z,18.44
2017-06-06T11:34:07.533Z,18.38
2017-06-06T11:35:08.184Z,18.33
2017-06-06T11:36:07.862Z,18.28
2017-06-06T11:37:07.533Z,18.33
2017-06-06T11:38:08.155Z,18.39
2017-06-06T11:39:07.872Z,18.46
2017-06-06T11:40:07.365Z,18.53
2017-06-06T11:41:08.205Z,18.59
2017-06-06T11:42:07.910Z,18.63
2017-06-06T11:43:07.526Z,18.62
2017-06-06T11:44:08.171Z,18.62
2017-06-06T11:45:07.882Z,18.60
2017-06-06T11:46:07.548Z,18.52
2017-06-06T11:47:08.214Z,18.44
2017-06-06T11:48:07.935Z,18.41
2017-06-06T11:49:07.532Z,18.39
2017-06-06T11:50:08.200Z,18.38
2017-06-06T11:51:18.304Z,18.27
2017-06-06T11:52:07.671Z,18.24
2017-06-06T11:53:08.238Z,18.24
2017-06-06T11:54:07.969Z,18.19
2017-06-06T11:55:07.435Z,18.18
2017-06-06T11:56:08.056Z,18.14
2017-06-06T11:57:15.061Z,18.10
2017-06-06T11:58:50.901Z,18.12
2017-06-06T11:59:07.533Z,18.12
2017-06-06T12:00:07.273Z,18.09
2017-06-06T12:01:07.962Z,18.09
2017-06-06T12:02:07.691Z,18.10
2017-06-06T12:03:08.165Z,18.06
2017-06-06T12:04:23.468Z,18.05
2017-06-06T12:05:08.244Z,18.00
2017-06-06T12:09:09.393Z,18.01
2017-06-06T12:10:07.932Z,17.99
2017-06-06T12:11:08.532Z,17.98
2017-06-06T12:12:09.336Z,17.97
2017-06-06T12:16:08.219Z,17.90
2017-06-06T12:17:07.288Z,17.89
2017-06-06T12:18:09.184Z,17.92
2017-06-06T12:19:08.874Z,17.92
2017-06-06T12:20:08.682Z,17.94
2017-06-06T12:21:08.227Z,17.97
2017-06-06T12:22:08.996Z,17.94
2017-06-06T12:23:08.579Z,17.88
2017-06-06T12:24:09.274Z,17.84
2017-06-06T12:25:08.894Z,17.84
2017-06-06T12:26:08.622Z,17.84
2017-06-06T12:27:08.060Z,17.84
2017-06-06T12:28:07.945Z,17.85
2017-06-06T12:29:08.539Z,17.88
2017-06-06T12:30:09.162Z,17.89
2017-06-06T12:31:08.963Z,17.91
2017-06-06T12:32:07.326Z,17.91
2017-06-06T12:33:09.204Z,17.88
2017-06-06T12:34:08.905Z,17.87
2017-06-06T12:35:08.686Z,17.87
2017-06-06T12:36:09.246Z,17.89
2017-06-06T12:37:07.641Z,17.92
2017-06-06T12:38:07.308Z,17.93
2017-06-06T12:39:07.946Z,17.91
2017-06-06T12:40:08.849Z,17.90
2017-06-06T12:41:08.443Z,17.91
2017-06-06T12:42:09.018Z,17.94
2017-06-06T12:43:08.723Z,17.92
2017-06-06T12:44:08.336Z,17.91
2017-06-06T12:45:08.940Z,17.89
2017-06-06T12:46:07.617Z,17.86
2017-06-06T12:47:07.397Z,17.83
2017-06-06T12:48:09.108Z,17.84
2017-06-06T12:49:07.741Z,17.85
2017-06-06T12:50:07.391Z,17.85
2017-06-06T12:51:08.008Z,17.86
2017-06-06T12:52:07.677Z,17.83
2017-06-06T12:53:07.367Z,17.85
2017-06-06T12:54:08.092Z,17.86
2017-06-06T12:55:07.720Z,17.85
2017-06-06T12:56:07.373Z,17.85
2017-06-06T12:57:08.057Z,17.83
2017-06-06T12:58:07.759Z,17.82
2017-06-06T12:59:07.378Z,17.81